Salisbury, Canada
Current Conditions -  °F | °C
As of 10:00 AM on Friday 24 Oct 2014 (Local Time) from CYQM Reporting Station
Light Rain Light Rain  
Wind Chill: 50°   Ceiling: 400
Heat Index: 50°   Visibility: 2mi
Dew Point: 48°   Wind: 24mph
Humidity: 94%   Direction: 20°NNE
Pressure: 29.62"   Gusts: 31mph
Location:  46.03°N, 65.05°W
Report Text: CYQM 241300Z 02021G27KT 2SM -RA BR OVC004 10/09 A2962 RMK SF8 PRESFR SLP032
Loading
Personal Weather Stations






























Interactive Weather Map
Tropical Storm Tracking
New forecast layout! Learn more

10-Day Weather Forecast

Advertisements
Track Severe Weather on mobile